Time;durP1;ratioP1;P1;durP2;ratioP2;P2;SDS_P1;SDS_P2;PMS_P1;PMS_P2;Temp;Humidity;BMP_temperature;BMP_pressure;BME280_temperature;BME280_humidity;BME280_pressure;Samples;Min_cycle;Max_cycle;Signal;HPM_P1;HPM_P2
2022/10/11 00:01:58;;;;;;;10.37;2.57;;;8.60;99.90;;;;;;5065347;28;20182;-79
2022/10/11 00:04:23;;;;;;;15.13;3.27;;;8.60;99.90;;;;;;5065257;28;20206;-79
2022/10/11 00:06:49;;;;;;;10.60;3.07;;;8.80;1.00;;;;;;5065430;28;20184;-78
2022/10/11 00:09:15;;;;;;;14.07;2.67;;;8.80;99.90;;;;;;5065672;28;20312;-79
2022/10/11 00:11:43;;;;;;;13.13;2.83;;;8.50;1.00;;;;;;5064891;28;21133;-78
2022/10/11 00:14:08;;;;;;;15.33;3.10;;;8.40;1.00;;;;;;5065271;28;20567;-79
2022/10/11 00:16:34;;;;;;;12.20;3.10;;;8.40;99.90;;;;;;5065026;28;20211;-79
2022/10/11 00:19:00;;;;;;;10.47;2.97;;;8.10;99.90;;;;;;5062269;28;20220;-79
2022/10/11 00:21:26;;;;;;;5.40;2.13;;;8.20;99.90;;;;;;5063453;28;20181;-78
2022/10/11 00:23:51;;;;;;;13.53;2.80;;;8.10;99.90;;;;;;5063782;28;20209;-78
2022/10/11 00:26:17;;;;;;;15.13;3.17;;;8.10;99.90;;;;;;5067511;28;20191;-80
2022/10/11 00:28:43;;;;;;;14.17;3.53;;;7.90;1.00;;;;;;5069103;28;20181;-79
2022/10/11 00:31:11;;;;;;;10.90;2.97;;;7.80;1.00;;;;;;5069075;28;20668;-79
2022/10/11 00:33:37;;;;;;;12.00;3.00;;;7.80;1.00;;;;;;5068629;28;20287;-79
2022/10/11 00:36:03;;;;;;;10.47;2.43;;;7.80;1.00;;;;;;5068918;28;20303;-79
2022/10/11 00:38:29;;;;;;;11.87;2.97;;;7.60;1.00;;;;;;5067414;28;20189;-79
2022/10/11 00:40:54;;;;;;;14.23;2.60;;;7.70;1.00;;;;;;5067373;28;20657;-79
2022/10/11 00:43:23;;;;;;;13.33;3.40;;;7.80;1.00;;;;;;5064991;28;20205;-79
2022/10/11 00:45:54;;;;;;;12.80;2.70;;;7.60;99.90;;;;;;5067017;28;20169;-79
2022/10/11 00:48:38;;;;;;;9.50;2.80;;;7.60;99.90;;;;;;5068808;28;20215;-78
2022/10/11 00:51:16;;;;;;;14.57;2.80;;;7.60;99.90;;;;;;5059993;28;20177;-79
2022/10/11 00:53:43;;;;;;;12.53;3.10;;;7.50;1.00;;;;;;5100495;28;20212;-78
2022/10/11 00:56:36;;;;;;;10.87;2.70;;;7.40;1.00;;;;;;5058746;28;20527;-79
2022/10/11 00:59:07;;;;;;;12.17;2.83;;;7.30;1.00;;;;;;5098940;28;20190;-79
2022/10/11 01:01:33;;;;;;;12.67;2.90;;;7.50;99.90;;;;;;5068123;28;20596;-79
2022/10/11 01:04:00;;;;;;;13.70;3.60;;;7.20;99.90;;;;;;5066794;28;20213;-78
2022/10/11 01:06:26;;;;;;;12.40;2.90;;;7.20;1.00;;;;;;5066951;28;20181;-79
2022/10/11 01:08:52;;;;;;;9.07;2.37;;;7.10;1.00;;;;;;5067028;28;20840;-79
2022/10/11 01:11:21;;;;;;;12.30;3.10;;;7.10;1.00;;;;;;5068376;28;20186;-79
2022/10/11 01:14:22;;;;;;;7.97;2.50;;;7.10;1.00;;;;;;5067327;28;20701;-79
2022/10/11 01:17:17;;;;;;;8.43;2.60;;;7.00;1.00;;;;;;5039038;28;20554;-78
2022/10/11 01:20:11;;;;;;;7.47;2.37;;;6.80;1.00;;;;;;5067740;28;20176;-80
2022/10/11 01:22:40;;;;;;;11.20;2.80;;;6.80;99.90;;;;;;5067151;28;20725;-78
2022/10/11 01:25:11;;;;;;;12.90;3.00;;;7.00;99.90;;;;;;5067733;28;20208;-79
2022/10/11 01:27:55;;;;;;;11.47;3.13;;;6.90;99.90;;;;;;5066404;28;20178;-78
2022/10/11 01:30:27;;;;;;;8.33;2.67;;;6.80;1.00;;;;;;5067483;28;20193;-79
2022/10/11 01:33:05;;;;;;;8.67;2.80;;;6.70;1.00;;;;;;5082262;28;20193;-79
2022/10/11 01:36:11;;;;;;;9.90;2.80;;;6.80;99.90;;;;;;5073653;28;20181;-80
2022/10/11 01:38:44;;;;;;;9.60;2.67;;;6.70;99.90;;;;;;5065973;28;20181;-79
2022/10/11 01:41:24;;;;;;;7.87;2.80;;;6.70;99.90;;;;;;5062423;28;20178;-78
2022/10/11 01:43:56;;;;;;;11.30;2.47;;;6.50;1.00;;;;;;5067629;28;20692;-79
2022/10/11 01:46:23;;;;;;;7.23;2.57;;;6.40;40.20;;;;;;5066383;28;20219;-79
2022/10/11 01:48:51;;;;;;;8.60;2.30;;;6.40;1.00;;;;;;5066294;28;20220;-79
2022/10/11 01:51:20;;;;;;;10.83;3.07;;;6.30;1.00;;;;;;5065767;28;20205;-78
2022/10/11 01:53:58;;;;;;;9.73;2.73;;;6.40;1.00;;;;;;5065738;28;20239;-78
2022/10/11 01:56:41;;;;;;;6.97;2.17;;;6.20;1.00;;;;;;5110585;22;20258;-81
2022/10/11 01:59:24;;;;;;;7.03;3.27;;;6.10;1.00;;;;;;5109350;28;20209;-79
2022/10/11 02:02:14;;;;;;;12.17;3.00;;;6.30;99.90;;;;;;5107723;28;20221;-80
2022/10/11 02:04:43;;;;;;;8.97;2.80;;;6.30;99.90;;;;;;5080407;28;20727;-81
2022/10/11 02:07:18;;;;;;;8.17;2.47;;;6.30;99.90;;;;;;5089739;28;20188;-82
2022/10/11 02:09:55;;;;;;;11.80;2.77;;;6.30;1.00;;;;;;5091401;28;20678;-80
2022/10/11 02:12:27;;;;;;;11.17;2.80;;;6.20;1.00;;;;;;5091484;28;20181;-79
2022/10/11 02:14:55;;;;;;;6.87;2.60;;;6.40;1.00;;;;;;5106873;28;20184;-80
2022/10/11 02:17:24;;;;;;;8.17;2.93;;;6.30;1.00;;;;;;5091923;28;20192;-79
2022/10/11 02:19:55;;;;;;;7.67;2.97;;;6.30;99.90;;;;;;5090532;28;21036;-80
2022/10/11 02:22:29;;;;;;;7.60;2.77;;;6.20;99.90;;;;;;5089397;28;20614;-79
2022/10/11 02:24:58;;;;;;;13.30;3.03;;;6.30;1.00;;;;;;5106350;28;20184;-78
2022/10/11 02:27:28;;;;;;;8.43;2.40;;;6.20;1.00;;;;;;5087540;28;20230;-81
2022/10/11 02:29:55;;;;;;;8.50;2.60;;;6.30;99.90;;;;;;5087883;28;20188;-79
2022/10/11 02:32:24;;;;;;;9.73;3.07;;;6.20;99.90;;;;;;5084878;28;20185;-79
2022/10/11 02:34:56;;;;;;;13.90;3.00;;;6.10;1.00;;;;;;5088856;28;20695;-79
2022/10/11 02:37:30;;;;;;;8.43;2.40;;;6.10;1.00;;;;;;5088249;28;20177;-80
2022/10/11 02:40:08;;;;;;;11.73;3.13;;;6.00;99.90;;;;;;5089592;28;20450;-81
2022/10/11 02:42:41;;;;;;;8.43;2.60;;;6.10;1.00;;;;;;5090798;28;20333;-80
2022/10/11 02:45:15;;;;;;;7.73;2.80;;;6.00;1.00;;;;;;5091137;28;20262;-80
2022/10/11 02:47:42;;;;;;;5.20;2.50;;;6.00;1.00;;;;;;5092012;28;20189;-81
2022/10/11 02:50:09;;;;;;;9.17;2.63;;;6.00;99.90;;;;;;5091272;28;20187;-80
2022/10/11 02:52:35;;;;;;;5.50;2.30;;;6.00;99.90;;;;;;5091292;28;20205;-79
2022/10/11 02:55:00;;;;;;;6.57;2.20;;;6.00;99.90;;;;;;5089862;28;20208;-81
2022/10/11 02:57:26;;;;;;;9.43;2.77;;;5.90;99.90;;;;;;5092569;28;20250;-80
2022/10/11 02:59:51;;;;;;;8.17;2.40;;;6.00;99.90;;;;;;5089773;28;20212;-79
2022/10/11 03:02:17;;;;;;;14.70;3.17;;;5.90;1.00;;;;;;5089306;28;20601;-79
2022/10/11 03:04:43;;;;;;;9.70;2.60;;;6.10;1.00;;;;;;5086104;28;20188;-79
2022/10/11 03:07:08;;;;;;;10.43;3.10;;;6.00;1.00;;;;;;5086548;28;20268;-79
2022/10/11 03:09:34;;;;;;;9.20;2.67;;;5.90;99.90;;;;;;5089094;28;20241;-81
2022/10/11 03:11:59;;;;;;;9.30;2.50;;;5.80;1.00;;;;;;5092178;28;20223;-78
2022/10/11 03:14:25;;;;;;;10.03;3.17;;;5.90;99.90;;;;;;5092724;28;20212;-79
2022/10/11 03:16:50;;;;;;;13.13;2.73;;;5.90;99.90;;;;;;5093767;28;20223;-80
2022/10/11 03:19:16;;;;;;;11.47;3.10;;;5.80;94.20;;;;;;5092043;28;20261;-78
2022/10/11 03:21:42;;;;;;;9.63;3.07;;;5.70;37.30;;;;;;5093832;28;20176;-79
2022/10/11 03:24:07;;;;;;;6.93;2.70;;;5.60;99.90;;;;;;5093318;28;20690;-79
2022/10/11 03:26:33;;;;;;;7.50;2.40;;;5.60;99.90;;;;;;5092054;28;20177;-79
2022/10/11 03:28:58;;;;;;;10.57;2.73;;;5.50;99.90;;;;;;5092830;28;20257;-79
2022/10/11 03:31:24;;;;;;;9.67;2.60;;;5.40;99.90;;;;;;5091659;28;20208;-79
2022/10/11 03:33:50;;;;;;;8.10;2.50;;;5.40;99.90;;;;;;5092413;28;20204;-78
2022/10/11 03:36:16;;;;;;;7.50;2.70;;;5.30;99.90;;;;;;5091783;28;20184;-80
2022/10/11 03:38:41;;;;;;;9.07;2.53;;;5.50;1.00;;;;;;5092639;28;20180;-82
2022/10/11 03:41:07;;;;;;;9.53;2.80;;;5.50;1.00;;;;;;5093647;28;20188;-81
2022/10/11 03:43:33;;;;;;;6.53;2.47;;;5.40;1.00;;;;;;5092300;28;20655;-81
2022/10/11 03:45:58;;;;;;;10.20;2.43;;;5.40;1.00;;;;;;5094080;28;20245;-79
2022/10/11 03:48:24;;;;;;;10.07;2.60;;;5.40;1.00;;;;;;5094555;28;20213;-78
2022/10/11 03:50:49;;;;;;;10.50;3.00;;;5.50;99.90;;;;;;5091782;28;20231;-79
2022/10/11 03:53:15;;;;;;;10.70;3.37;;;5.50;1.00;;;;;;5091995;28;20276;-80
2022/10/11 03:55:41;;;;;;;14.80;2.77;;;5.40;99.90;;;;;;5094097;28;20273;-80
2022/10/11 03:58:07;;;;;;;13.23;2.90;;;5.40;1.00;;;;;;5092846;28;20192;-80
2022/10/11 04:00:34;;;;;;;9.53;3.00;;;5.30;99.90;;;;;;5091897;28;20269;-78
2022/10/11 04:02:59;;;;;;;8.87;2.60;;;5.30;1.00;;;;;;5092162;28;20213;-79
2022/10/11 04:05:25;;;;;;;11.40;2.73;;;5.40;1.00;;;;;;5092382;28;20195;-79
2022/10/11 04:07:51;;;;;;;10.50;3.00;;;5.40;1.00;;;;;;5092207;28;20193;-79
2022/10/11 04:10:16;;;;;;;9.23;2.53;;;5.40;65.10;;;;;;5091879;28;20180;-80
2022/10/11 04:12:42;;;;;;;7.27;2.30;;;5.40;1.00;;;;;;5090931;28;20690;-79
2022/10/11 04:15:12;;;;;;;10.40;2.70;;;5.40;1.00;;;;;;5091106;28;20184;-80
2022/10/11 04:17:38;;;;;;;10.83;3.27;;;5.50;99.90;;;;;;5088373;28;20181;-80
2022/10/11 04:20:05;;;;;;;12.90;3.03;;;5.50;1.00;;;;;;5088562;28;20230;-80
2022/10/11 04:22:31;;;;;;;12.77;2.93;;;5.40;99.90;;;;;;5084862;28;20217;-80
2022/10/11 04:24:57;;;;;;;8.73;2.80;;;5.40;1.00;;;;;;5085531;28;20181;-80
2022/10/11 04:27:22;;;;;;;9.90;2.70;;;5.30;99.90;;;;;;5090377;28;20181;-81
2022/10/11 04:29:48;;;;;;;9.13;3.03;;;5.30;99.90;;;;;;5093828;28;20173;-79
2022/10/11 04:32:14;;;;;;;16.97;6.73;;;5.40;1.00;;;;;;5094865;28;20552;-80
2022/10/11 04:34:39;;;;;;;15.87;7.90;;;5.50;1.00;;;;;;5092717;28;20187;-81
2022/10/11 04:37:05;;;;;;;15.33;7.67;;;5.60;1.00;;;;;;5094510;28;20181;-81
2022/10/11 04:39:30;;;;;;;16.20;6.47;;;5.30;1.00;;;;;;5094378;28;20196;-80
2022/10/11 04:41:56;;;;;;;12.10;6.20;;;5.30;99.90;;;;;;5093932;28;20268;-79
2022/10/11 04:44:22;;;;;;;14.87;4.87;;;5.20;99.90;;;;;;5093147;28;20731;-78
2022/10/11 04:46:47;;;;;;;13.27;4.97;;;5.30;1.00;;;;;;5093950;28;20197;-80
2022/10/11 04:49:13;;;;;;;9.97;4.93;;;5.30;99.90;;;;;;5094290;28;20678;-80
2022/10/11 04:51:38;;;;;;;8.07;4.13;;;5.20;75.40;;;;;;5091771;28;20173;-80
2022/10/11 04:54:04;;;;;;;17.60;4.63;;;5.20;1.00;;;;;;5093145;28;20205;-81
2022/10/11 04:56:30;;;;;;;8.90;3.37;;;5.10;99.90;;;;;;5093345;28;20366;-81
2022/10/11 04:58:55;;;;;;;9.67;3.40;;;5.10;99.90;;;;;;5093935;28;20695;-79
2022/10/11 05:01:21;;;;;;;12.17;3.13;;;5.20;99.90;;;;;;5090901;28;20189;-79
2022/10/11 05:03:47;;;;;;;8.60;2.93;;;5.00;1.00;;;;;;5086801;28;20590;-79
2022/10/11 05:06:12;;;;;;;11.67;3.60;;;5.00;64.40;;;;;;5083423;28;20652;-80
2022/10/11 05:08:38;;;;;;;10.80;3.00;;;5.10;75.50;;;;;;5086910;28;20181;-80
2022/10/11 05:11:09;;;;;;;14.00;3.30;;;4.90;95.30;;;;;;5086936;28;20185;-81
2022/10/11 05:13:35;;;;;;;9.77;3.10;;;5.00;99.90;;;;;;5088489;28;20205;-79
2022/10/11 05:16:01;;;;;;;8.17;3.00;;;4.90;85.90;;;;;;5088125;28;20585;-79
2022/10/11 05:18:27;;;;;;;12.73;3.93;;;4.80;99.90;;;;;;5089614;28;20184;-79
2022/10/11 05:21:01;;;;;;;17.67;3.83;;;4.50;99.90;;;;;;5088485;28;20191;-79
2022/10/11 05:23:28;;;;;;;13.10;3.30;;;4.90;99.90;;;;;;5088296;28;20294;-80
2022/10/11 05:25:54;;;;;;;10.23;3.20;;;4.90;99.90;;;;;;5091554;28;20636;-80
2022/10/11 05:28:19;;;;;;;11.40;3.10;;;5.20;1.00;;;;;;5090105;28;20191;-81
2022/10/11 05:30:45;;;;;;;10.90;3.47;;;5.10;1.00;;;;;;5090299;28;20177;-80
2022/10/11 05:33:10;;;;;;;10.20;3.73;;;5.20;1.00;;;;;;5089279;28;20243;-80
2022/10/11 05:35:36;;;;;;;11.93;3.43;;;5.10;1.00;;;;;;5089892;28;20189;-79
2022/10/11 05:38:02;;;;;;;12.07;3.50;;;4.90;1.00;;;;;;5088155;28;20654;-79
2022/10/11 05:40:27;;;;;;;11.20;3.87;;;4.80;1.00;;;;;;5089743;28;20185;-79
2022/10/11 05:42:53;;;;;;;7.37;3.40;;;5.00;99.90;;;;;;5089049;28;20676;-80
2022/10/11 05:45:18;;;;;;;14.40;4.07;;;5.10;1.00;;;;;;5089725;28;20224;-80
2022/10/11 05:47:44;;;;;;;14.37;5.23;;;4.60;99.90;;;;;;5089125;28;20181;-80
2022/10/11 05:50:10;;;;;;;12.43;4.73;;;5.00;99.90;;;;;;5089024;28;20591;-81
2022/10/11 05:52:36;;;;;;;11.33;3.77;;;5.00;1.00;;;;;;5089938;28;20736;-80
2022/10/11 05:55:02;;;;;;;12.60;4.67;;;5.30;1.00;;;;;;5089988;28;20609;-80
2022/10/11 05:57:28;;;;;;;7.93;3.40;;;5.20;1.00;;;;;;5088140;28;20192;-80
2022/10/11 05:59:53;;;;;;;13.23;4.53;;;5.40;1.00;;;;;;5089073;28;20668;-80
2022/10/11 06:02:19;;;;;;;9.23;4.03;;;5.30;99.90;;;;;;5088437;28;20187;-80
2022/10/11 06:04:45;;;;;;;12.67;5.03;;;5.30;99.90;;;;;;5089582;28;20173;-79
2022/10/11 06:07:10;;;;;;;14.73;4.73;;;5.40;1.00;;;;;;5087706;28;20212;-79
2022/10/11 06:09:36;;;;;;;10.83;4.07;;;5.50;99.90;;;;;;5087579;28;20177;-79
2022/10/11 06:12:02;;;;;;;10.60;3.60;;;5.50;1.00;;;;;;5086684;28;20224;-80
2022/10/11 06:14:28;;;;;;;11.53;3.77;;;5.50;1.00;;;;;;5088700;28;20208;-80
2022/10/11 06:16:53;;;;;;;14.30;4.77;;;5.40;1.00;;;;;;5088709;28;20234;-80
2022/10/11 06:19:19;;;;;;;10.37;3.93;;;5.50;1.00;;;;;;5089312;28;20211;-81
2022/10/11 06:21:45;;;;;;;9.73;3.40;;;5.50;1.00;;;;;;5086288;28;20177;-81
2022/10/11 06:24:11;;;;;;;12.57;3.60;;;5.50;1.00;;;;;;5088394;28;20203;-80
2022/10/11 06:26:37;;;;;;;11.10;3.87;;;5.50;1.00;;;;;;5091110;28;20185;-80
2022/10/11 06:29:03;;;;;;;14.00;4.27;;;5.50;1.00;;;;;;5090121;28;20195;-80
2022/10/11 06:31:29;;;;;;;10.07;3.43;;;5.40;1.00;;;;;;5090555;28;20184;-80
2022/10/11 06:33:55;;;;;;;10.43;3.40;;;5.50;1.00;;;;;;5088606;28;20197;-81
2022/10/11 06:36:21;;;;;;;8.37;3.30;;;5.50;99.90;;;;;;5091954;28;20238;-79
2022/10/11 06:38:49;;;;;;;11.97;3.93;;;5.60;99.90;;;;;;5090685;28;20181;-79
2022/10/11 06:41:17;;;;;;;10.53;3.77;;;5.80;1.00;;;;;;5088496;28;20177;-80
2022/10/11 06:43:43;;;;;;;8.87;3.67;;;5.80;1.00;;;;;;5088548;28;20205;-79
2022/10/11 06:46:09;;;;;;;14.53;4.63;;;6.00;1.00;;;;;;5087489;28;20298;-79
2022/10/11 06:48:40;;;;;;;9.30;4.23;;;6.00;1.00;;;;;;5088935;28;20200;-81
2022/10/11 06:51:06;;;;;;;9.40;3.33;;;6.20;1.00;;;;;;5088499;28;20544;-80
2022/10/11 06:53:31;;;;;;;9.73;4.17;;;6.20;1.00;;;;;;5088139;28;20201;-79
2022/10/11 06:56:04;;;;;;;12.00;3.87;;;6.30;1.00;;;;;;5088755;28;20224;-78
2022/10/11 06:58:30;;;;;;;12.57;3.60;;;6.30;1.00;;;;;;5087227;28;20177;-79
2022/10/11 07:01:00;;;;;;;8.27;3.40;;;6.10;1.00;;;;;;5088020;28;20181;-80
2022/10/11 07:03:27;;;;;;;10.07;4.07;;;6.60;1.00;;;;;;5087881;28;20197;-79
2022/10/11 07:05:52;;;;;;;10.90;3.83;;;6.70;1.00;;;;;;5088191;28;20258;-79
2022/10/11 07:08:18;;;;;;;9.33;3.80;;;7.10;1.00;;;;;;5087965;28;20177;-78
2022/10/11 07:10:43;;;;;;;11.80;3.63;;;6.90;99.90;;;;;;5087530;28;20191;-78
2022/10/11 07:13:09;;;;;;;7.90;3.77;;;7.00;99.90;;;;;;5087391;28;20295;-79
2022/10/11 07:15:40;;;;;;;7.57;3.67;;;7.00;99.90;;;;;;5084994;28;20185;-80
2022/10/11 07:18:06;;;;;;;15.30;3.63;;;7.10;99.90;;;;;;5084632;28;20238;-80
2022/10/11 07:20:31;;;;;;;9.83;2.97;;;7.20;7.90;;;;;;5086377;28;20668;-80
2022/10/11 07:22:57;;;;;;;6.70;3.20;;;7.30;1.00;;;;;;5084010;28;20275;-79
2022/10/11 07:25:23;;;;;;;9.93;3.30;;;7.30;1.00;;;;;;5084205;28;20177;-79
2022/10/11 07:27:48;;;;;;;11.53;4.17;;;7.40;1.00;;;;;;5083531;28;20185;-80
2022/10/11 07:30:14;;;;;;;9.80;3.07;;;7.50;1.00;;;;;;5083248;28;20197;-78
2022/10/11 07:32:39;;;;;;;9.87;2.77;;;7.60;1.00;;;;;;5083861;28;20261;-79
2022/10/11 07:35:05;;;;;;;11.33;3.13;;;7.70;1.00;;;;;;5084599;28;20623;-79
2022/10/11 07:37:32;;;;;;;11.77;3.30;;;7.80;1.00;;;;;;5083484;28;20251;-78
2022/10/11 07:39:58;;;;;;;11.90;4.30;;;7.60;1.00;;;;;;5084374;28;20185;-78
2022/10/11 07:42:24;;;;;;;8.00;3.03;;;7.80;1.00;;;;;;5083763;28;20192;-77
2022/10/11 07:44:49;;;;;;;9.33;3.63;;;8.10;1.00;;;;;;5087633;28;20180;-80
2022/10/11 07:47:15;;;;;;;7.60;3.00;;;7.80;1.00;;;;;;5084867;28;20192;-80
2022/10/11 07:49:40;;;;;;;11.80;3.50;;;8.30;1.00;;;;;;5083642;28;20217;-80
2022/10/11 07:52:06;;;;;;;10.93;3.03;;;8.30;1.00;;;;;;5082120;28;20653;-81
2022/10/11 07:54:32;;;;;;;9.03;2.70;;;8.40;1.00;;;;;;5078880;28;20210;-80
2022/10/11 07:56:58;;;;;;;13.00;3.80;;;8.60;1.00;;;;;;5080957;28;20603;-80
2022/10/11 07:59:23;;;;;;;12.40;3.57;;;8.60;1.00;;;;;;5081756;28;20241;-79
2022/10/11 08:01:49;;;;;;;13.37;3.47;;;8.60;1.00;;;;;;5084661;28;20177;-79
2022/10/11 08:04:15;;;;;;;14.97;3.90;;;8.60;1.00;;;;;;5086036;28;20204;-79
2022/10/11 08:06:41;;;;;;;13.70;4.13;;;8.80;99.90;;;;;;5082140;28;20192;-82
2022/10/11 08:09:08;;;;;;;12.70;4.17;;;9.00;99.90;;;;;;5085253;28;20188;-81
2022/10/11 08:11:36;;;;;;;13.00;3.87;;;9.00;99.90;;;;;;5086621;28;20177;-82
2022/10/11 08:14:07;;;;;;;14.77;3.90;;;9.10;99.90;;;;;;5083837;28;20213;-79
2022/10/11 08:16:34;;;;;;;12.30;3.50;;;9.30;99.90;;;;;;5085392;28;20185;-81
2022/10/11 08:19:01;;;;;;;12.63;3.57;;;9.30;99.90;;;;;;5086961;28;20181;-80
2022/10/11 08:21:27;;;;;;;13.60;4.37;;;9.20;99.90;;;;;;5086916;28;20172;-81
2022/10/11 08:23:53;;;;;;;9.77;3.63;;;9.50;99.90;;;;;;5086726;28;20213;-80
2022/10/11 08:26:19;;;;;;;13.77;3.83;;;9.70;99.90;;;;;;5086186;28;20177;-78
2022/10/11 08:28:44;;;;;;;13.83;3.97;;;9.70;99.90;;;;;;5088327;28;20872;-79
2022/10/11 08:31:14;;;;;;;10.43;2.90;;;10.00;99.90;;;;;;5088271;28;20268;-79
2022/10/11 08:33:40;;;;;;;12.23;4.30;;;9.90;99.90;;;;;;5082647;28;20223;-78
2022/10/11 08:36:07;;;;;;;11.60;3.90;;;10.00;99.90;;;;;;5084353;28;20177;-80
2022/10/11 08:38:33;;;;;;;14.40;3.77;;;10.10;99.90;;;;;;5083588;28;20874;-81
2022/10/11 08:41:00;;;;;;;23.40;7.97;;;10.20;99.90;;;;;;5083294;28;20188;-81
2022/10/11 08:43:46;;;;;;;16.63;4.93;;;10.50;68.30;;;;;;5081939;28;20257;-81
2022/10/11 08:46:14;;;;;;;18.53;5.13;;;10.40;45.70;;;;;;5084195;28;20555;-81
2022/10/11 08:48:47;;;;;;;13.80;4.70;;;10.50;28.60;;;;;;5084756;28;20181;-84
2022/10/11 08:51:24;;;;;;;16.67;6.53;;;10.50;33.00;;;;;;5085863;28;20188;-79
2022/10/11 08:53:50;;;;;;;13.43;4.50;;;10.60;5.70;;;;;;5085350;28;20220;-75
2022/10/11 08:56:16;;;;;;;14.07;5.30;;;10.70;12.20;;;;;;5086251;28;20196;-77
2022/10/11 08:58:49;;;;;;;13.90;4.73;;;10.80;1.00;;;;;;5083467;28;20304;-77
2022/10/11 09:01:22;;;;;;;9.50;3.63;;;10.80;1.00;;;;;;5089116;28;20594;-79
2022/10/11 09:03:48;;;;;;;10.17;3.60;;;10.80;1.00;;;;;;5087154;28;20215;-75
2022/10/11 09:06:32;;;;;;;14.47;3.33;;;11.10;1.00;;;;;;5085646;28;20279;-81
2022/10/11 09:09:26;;;;;;;13.97;5.00;;;11.00;1.00;;;;;;5088116;28;20606;-80
2022/10/11 09:12:22;;;;;;;13.47;3.93;;;11.10;1.00;;;;;;5087141;28;20201;-79
2022/10/11 09:15:26;;;;;;;14.70;4.93;;;11.20;1.00;;;;;;5087576;28;20180;-77
2022/10/11 09:18:30;;;;;;;11.07;4.00;;;11.20;1.00;;;;;;5087851;28;20218;-76
2022/10/11 09:21:14;;;;;;;15.33;5.80;;;11.20;1.00;;;;;;5069615;28;20703;-77
2022/10/11 09:23:58;;;;;;;13.37;4.60;;;11.30;1.00;;;;;;5085545;28;20633;-79
2022/10/11 09:26:50;;;;;;;13.10;2.73;;;11.40;1.00;;;;;;5086830;28;20184;-78
2022/10/11 09:29:36;;;;;;;34.27;19.40;;;11.50;1.00;;;;;;5086403;28;20565;-78
2022/10/11 09:32:13;;;;;;;11.63;4.20;;;11.70;1.00;;;;;;5086077;28;20173;-77
2022/10/11 09:34:38;;;;;;;11.77;3.40;;;11.70;1.00;;;;;;5085579;28;20237;-78
2022/10/11 09:37:20;;;;;;;10.88;3.50;;;11.80;1.00;;;;;;5086247;28;20420;-78
2022/10/11 09:40:09;;;;;;;11.32;3.75;;;11.80;1.00;;;;;;5087662;28;20229;-79
2022/10/11 09:42:35;;;;;;;13.20;4.45;;;11.90;1.00;;;;;;5077256;28;20213;-78
2022/10/11 09:45:01;;;;;;;9.30;2.47;;;12.00;1.00;;;;;;5087844;28;20264;-77
2022/10/11 09:47:29;;;;;;;9.55;2.60;;;12.20;1.00;;;;;;5084879;28;20181;-77
2022/10/11 09:50:05;;;;;;;10.27;3.05;;;12.10;1.00;;;;;;5084053;28;20183;-77
2022/10/11 09:52:31;;;;;;;9.85;2.78;;;12.10;1.00;;;;;;5085575;28;20187;-77
2022/10/11 09:55:00;;;;;;;8.05;2.22;;;12.00;1.00;;;;;;5086321;28;20675;-80
2022/10/11 09:57:27;;;;;;;9.82;3.10;;;12.10;1.00;;;;;;5084678;28;20372;-78
2022/10/11 10:00:00;;;;;;;10.25;3.03;;;12.10;1.00;;;;;;5085324;28;20243;-78
2022/10/11 10:02:28;;;;;;;12.02;2.45;;;12.20;1.00;;;;;;5083092;28;20173;-77
2022/10/11 10:05:08;;;;;;;13.80;2.58;;;12.20;1.00;;;;;;5084277;28;20200;-79
2022/10/11 10:07:36;;;;;;;10.30;2.25;;;12.20;1.00;;;;;;5084851;28;20225;-79
2022/10/11 10:10:25;;;;;;;9.50;2.22;;;12.20;1.00;;;;;;5085359;28;20192;-76
2022/10/11 10:12:57;;;;;;;9.32;2.05;;;12.30;1.00;;;;;;5085787;28;20246;-78
2022/10/11 10:15:29;;;;;;;8.45;2.25;;;12.30;1.00;;;;;;5086066;28;20214;-78
2022/10/11 10:17:55;;;;;;;11.02;2.10;;;12.40;1.00;;;;;;5084089;28;20234;-78
2022/10/11 10:20:32;;;;;;;8.13;2.22;;;12.50;1.00;;;;;;5088214;28;20185;-79
2022/10/11 10:23:17;;;;;;;7.25;2.15;;;12.50;1.00;;;;;;5084522;28;20200;-77
2022/10/11 10:25:49;;;;;;;8.35;2.40;;;12.80;1.00;;;;;;5085462;28;20183;-78
2022/10/11 10:28:21;;;;;;;12.68;2.72;;;12.70;1.00;;;;;;5084300;28;20555;-77
2022/10/11 10:30:57;;;;;;;8.02;2.15;;;12.70;1.00;;;;;;5100667;28;20181;-77
2022/10/11 10:33:28;;;;;;;11.05;2.42;;;12.70;1.00;;;;;;5081913;28;20249;-78
2022/10/11 10:36:00;;;;;;;11.90;2.28;;;12.90;1.00;;;;;;5082442;28;20180;-78
2022/10/11 10:38:53;;;;;;;5.50;1.60;;;12.90;1.00;;;;;;5082628;28;20207;-76
2022/10/11 10:41:19;;;;;;;6.75;1.77;;;13.00;1.00;;;;;;5098515;28;20169;-77
2022/10/11 10:43:55;;;;;;;9.77;2.00;;;13.00;1.00;;;;;;5083661;28;20595;-76
2022/10/11 10:46:36;;;;;;;9.88;2.13;;;13.10;1.00;;;;;;5083135;28;20605;-77
2022/10/11 10:49:07;;;;;;;9.43;2.58;;;13.30;1.00;;;;;;5082421;28;20188;-79
2022/10/11 10:52:01;;;;;;;9.05;2.10;;;13.40;1.00;;;;;;5083729;28;20648;-78
2022/10/11 10:54:49;;;;;;;7.00;1.75;;;13.80;1.00;;;;;;5083473;28;20216;-77
2022/10/11 10:57:44;;;;;;;7.22;1.80;;;13.70;1.00;;;;;;5083748;28;20185;-77
2022/10/11 11:00:18;;;;;;;6.75;2.20;;;13.70;1.00;;;;;;5083469;28;20192;-77
2022/10/11 11:02:50;;;;;;;10.93;2.10;;;13.50;1.00;;;;;;5083165;28;20261;-77
2022/10/11 11:05:35;;;;;;;6.40;1.80;;;13.50;1.00;;;;;;5089602;28;20180;-77
2022/10/11 11:08:25;;;;;;;5.93;2.42;;;13.40;1.00;;;;;;5082446;28;20440;-77
2022/10/11 11:11:01;;;;;;;10.48;4.38;;;13.50;1.00;;;;;;5082843;28;20190;-77
2022/10/11 11:13:49;;;;;;;7.47;2.58;;;13.60;1.00;;;;;;5081697;28;20556;-79
2022/10/11 11:16:31;;;;;;;19.90;8.07;;;13.70;1.00;;;;;;5082481;28;20181;-78
2022/10/11 11:19:05;;;;;;;14.85;5.28;;;13.90;1.00;;;;;;5082005;28;20184;-83
2022/10/11 11:21:52;;;;;;;12.40;4.40;;;13.90;1.00;;;;;;5083809;28;20276;-82
2022/10/11 11:24:39;;;;;;;14.43;6.30;;;13.90;1.00;;;;;;5083023;28;20699;-83
2022/10/11 11:27:22;;;;;;;13.90;5.82;;;13.90;1.00;;;;;;5079824;28;20733;-85
2022/10/11 11:30:09;;;;;;;9.48;3.40;;;14.00;1.00;;;;;;5081659;28;20832;-82
2022/10/11 11:33:05;;;;;;;8.20;3.33;;;14.00;1.00;;;;;;5097255;28;20249;-82
2022/10/11 11:35:44;;;;;;;12.85;4.82;;;14.10;1.00;;;;;;5080588;28;20722;-85
2022/10/11 11:38:23;;;;;;;12.15;4.90;;;14.00;1.00;;;;;;5081410;28;20733;-81
2022/10/11 11:41:09;;;;;;;9.10;4.28;;;14.10;1.00;;;;;;5088535;28;20582;-81
2022/10/11 11:43:52;;;;;;;17.65;3.58;;;14.20;1.00;;;;;;5083198;28;20204;-83
2022/10/11 11:46:29;;;;;;;14.45;6.00;;;14.10;1.00;;;;;;5081479;28;20204;-84
2022/10/11 11:48:59;;;;;;;10.60;5.45;;;14.20;1.00;;;;;;5100922;28;20348;-83
2022/10/11 11:51:33;;;;;;;13.25;4.25;;;14.40;1.00;;;;;;5086034;28;20177;-83
2022/10/11 11:54:14;;;;;;;10.85;3.22;;;14.20;1.00;;;;;;5080018;28;20205;-82
2022/10/11 11:57:07;;;;;;;8.35;2.75;;;14.30;1.00;;;;;;5081323;28;20267;-84
2022/10/11 11:59:45;;;;;;;11.25;3.35;;;14.20;1.00;;;;;;5082695;28;20589;-85
2022/10/11 12:02:51;;;;;;;7.70;2.33;;;14.10;1.00;;;;;;5083227;28;20176;-84
2022/10/11 12:05:22;;;;;;;8.48;2.50;;;14.20;1.00;;;;;;5084613;28;20562;-82
2022/10/11 12:07:58;;;;;;;8.77;2.08;;;14.20;1.00;;;;;;5081027;28;20209;-84
2022/10/11 12:10:34;;;;;;;9.88;2.70;;;14.30;1.00;;;;;;5082583;28;20192;-81
2022/10/11 12:13:02;;;;;;;6.18;1.70;;;14.40;1.00;;;;;;5085709;28;20582;-82
2022/10/11 12:15:28;;;;;;;6.13;1.88;;;14.40;1.00;;;;;;5086144;28;20173;-83
2022/10/11 12:18:02;;;;;;;10.90;2.28;;;14.40;1.00;;;;;;5085917;28;20661;-82
2022/10/11 12:20:39;;;;;;;9.85;2.15;;;14.60;1.00;;;;;;5088358;28;20172;-85
2022/10/11 12:23:27;;;;;;;8.45;2.10;;;14.60;1.00;;;;;;5106715;28;20573;-83
2022/10/11 12:26:27;;;;;;;6.45;1.52;;;14.70;1.00;;;;;;5089271;28;20261;-83
2022/10/11 12:29:25;;;;;;;7.85;1.98;;;14.70;1.00;;;;;;5049992;28;20258;-80
2022/10/11 12:32:31;;;;;;;6.55;1.80;;;14.70;1.00;;;;;;5065583;28;20185;-83
2022/10/11 12:35:31;;;;;;;4.97;1.70;;;14.50;1.00;;;;;;5085346;28;20193;-87
2022/10/11 12:38:08;;;;;;;9.80;1.90;;;14.50;1.00;;;;;;5085393;28;20220;-85
2022/10/11 12:40:42;;;;;;;8.98;2.08;;;14.50;1.00;;;;;;5087021;28;20663;-86
2022/10/11 12:43:09;;;;;;;5.75;2.10;;;14.40;1.00;;;;;;5087942;28;20207;-85
2022/10/11 12:45:35;;;;;;;9.32;2.20;;;14.40;1.00;;;;;;5088634;28;20177;-84
2022/10/11 12:48:16;;;;;;;11.48;1.90;;;14.50;1.00;;;;;;5085267;28;20204;-86
2022/10/11 12:51:00;;;;;;;5.70;1.80;;;14.40;1.00;;;;;;5087525;28;20219;-85
2022/10/11 12:53:34;;;;;;;6.38;2.03;;;14.50;1.00;;;;;;5089905;28;20771;-81
2022/10/11 12:56:24;;;;;;;7.93;1.60;;;14.60;1.00;;;;;;5089924;28;20195;-82
2022/10/11 12:59:01;;;;;;;5.32;1.63;;;14.50;1.00;;;;;;5084711;28;20264;-78
2022/10/11 13:01:33;;;;;;;5.82;1.30;;;14.70;1.00;;;;;;5082848;28;20571;-84
2022/10/11 13:04:08;;;;;;;5.97;1.40;;;14.50;1.00;;;;;;5097800;28;20685;-79
2022/10/11 13:06:46;;;;;;;3.92;1.27;;;14.60;1.00;;;;;;5081531;28;20187;-79
2022/10/11 13:09:24;;;;;;;5.38;1.55;;;14.50;1.00;;;;;;5083166;28;20618;-80
2022/10/11 13:11:55;;;;;;;7.68;1.92;;;14.40;1.00;;;;;;5084993;28;20180;-80
2022/10/11 13:14:24;;;;;;;5.45;1.80;;;14.50;1.00;;;;;;5100810;28;20216;-82
2022/10/11 13:17:04;;;;;;;7.50;1.63;;;14.30;1.00;;;;;;5085351;28;20176;-78
2022/10/11 13:19:33;;;;;;;8.05;1.98;;;14.10;1.00;;;;;;5084137;28;20552;-78